createdAt,value
2023-01-04T00:01:22.554Z,0.57
2023-01-04T00:02:54.294Z,0.50
2023-01-04T00:04:26.173Z,0.48
2023-01-04T00:05:59.304Z,0.36
2023-01-04T00:07:31.031Z,0.30
2023-01-04T00:09:02.918Z,0.34
2023-01-04T00:10:35.330Z,0.29
2023-01-04T00:12:07.069Z,0.30
2023-01-04T00:13:39.350Z,0.29
2023-01-04T00:15:11.322Z,0.36
2023-01-04T00:16:43.091Z,0.33
2023-01-04T00:18:14.727Z,0.25
2023-01-04T00:19:46.420Z,0.27
2023-01-04T00:21:21.682Z,0.27
2023-01-04T00:22:53.395Z,0.31
2023-01-04T00:24:25.041Z,0.45
2023-01-04T00:25:56.659Z,0.51
2023-01-04T00:27:28.243Z,0.47
2023-01-04T00:29:02.785Z,0.45
2023-01-04T00:30:34.561Z,0.39
2023-01-04T00:32:06.256Z,0.31
2023-01-04T00:33:38.204Z,0.26
2023-01-04T00:35:10.495Z,0.20
2023-01-04T00:36:42.368Z,0.21
2023-01-04T00:38:13.945Z,0.20
2023-01-04T00:39:45.551Z,0.16
2023-01-04T00:41:56.418Z,0.23
2023-01-04T00:43:08.713Z,0.32
2023-01-04T00:44:40.324Z,0.28
2023-01-04T00:46:12.048Z,0.18
2023-01-04T00:47:43.682Z,0.12
2023-01-04T00:49:15.445Z,0.18
2023-01-04T00:50:48.204Z,0.22
2023-01-04T00:52:19.879Z,0.25
2023-01-04T00:53:51.978Z,0.34
2023-01-04T00:55:23.595Z,0.45
2023-01-04T00:56:55.396Z,0.49
2023-01-04T00:58:27.044Z,0.47
2023-01-04T00:59:58.636Z,0.50
2023-01-04T01:01:31.967Z,0.55
2023-01-04T01:03:04.678Z,0.59
2023-01-04T01:04:36.747Z,0.60
2023-01-04T01:06:08.602Z,0.56
2023-01-04T01:07:40.264Z,0.65
2023-01-04T01:09:12.632Z,0.71
2023-01-04T01:10:44.312Z,0.73
2023-01-04T01:12:15.877Z,0.73
2023-01-04T01:13:48.221Z,0.70
2023-01-04T01:15:19.813Z,0.76
2023-01-04T01:16:59.710Z,0.76
2023-01-04T01:18:31.432Z,0.67
2023-01-04T01:20:05.154Z,0.75
2023-01-04T01:21:37.860Z,0.62
2023-01-04T01:23:10.966Z,0.58
2023-01-04T01:24:42.487Z,0.54
2023-01-04T01:26:19.291Z,0.49
2023-01-04T01:27:50.943Z,0.57
2023-01-04T01:29:22.783Z,0.56
2023-01-04T01:30:54.662Z,0.47
2023-01-04T01:32:26.393Z,0.48
2023-01-04T01:33:59.816Z,0.50
2023-01-04T01:35:33.751Z,0.55
2023-01-04T01:37:06.092Z,0.57
2023-01-04T01:38:38.409Z,0.64
2023-01-04T01:40:10.730Z,0.72
2023-01-04T01:41:42.457Z,0.74
2023-01-04T01:43:22.490Z,0.79
2023-01-04T01:45:01.860Z,0.84
2023-01-04T01:46:54.719Z,0.91
2023-01-04T01:48:29.704Z,0.97
2023-01-04T01:50:02.981Z,0.98
2023-01-04T01:51:35.470Z,0.95
2023-01-04T01:53:09.716Z,0.98
2023-01-04T01:54:47.282Z,0.95
2023-01-04T01:56:19.680Z,0.89
2023-01-04T01:57:54.556Z,0.81
2023-01-04T01:59:27.614Z,0.73
2023-01-04T02:00:59.587Z,0.64
2023-01-04T02:02:31.332Z,0.66
2023-01-04T02:04:05.155Z,0.57
2023-01-04T02:05:37.388Z,0.54
2023-01-04T02:07:11.951Z,0.40
2023-01-04T02:08:43.891Z,0.35
2023-01-04T02:10:15.934Z,0.39
2023-01-04T02:11:47.564Z,0.40
2023-01-04T02:13:23.632Z,0.32
2023-01-04T02:14:55.285Z,0.32
2023-01-04T02:16:44.918Z,0.30
2023-01-04T02:18:24.137Z,0.19
2023-01-04T02:20:14.225Z,0.16
2023-01-04T02:22:04.063Z,0.21
2023-01-04T02:23:50.593Z,0.14
2023-01-04T02:25:34.058Z,0.13
2023-01-04T02:27:34.290Z,0.00
2023-01-04T02:29:30.545Z,-0.05
2023-01-04T02:31:26.922Z,0.03
2023-01-04T02:33:23.259Z,0.10
2023-01-04T02:35:22.742Z,0.22
2023-01-04T02:37:19.015Z,0.15
2023-01-04T02:38:53.432Z,0.00
2023-01-04T02:41:15.429Z,0.09
2023-01-04T02:43:22.528Z,0.24
2023-01-04T02:45:04.510Z,0.20
2023-01-04T02:46:42.750Z,0.20
2023-01-04T02:48:32.883Z,0.32
2023-01-04T02:50:32.283Z,0.39
2023-01-04T02:52:03.998Z,0.43
2023-01-04T02:53:38.816Z,0.24
2023-01-04T02:55:10.432Z,0.02
2023-01-04T02:56:57.284Z,0.13
2023-01-04T02:58:52.008Z,0.14
2023-01-04T03:00:26.609Z,0.09
2023-01-04T03:02:43.293Z,0.09
2023-01-04T03:04:39.248Z,0.12
2023-01-04T03:06:25.704Z,0.12
2023-01-04T03:08:08.543Z,0.10
2023-01-04T03:09:45.443Z,0.06
2023-01-04T03:11:36.304Z,-0.01
2023-01-04T03:13:17.650Z,0.00
2023-01-04T03:15:00.980Z,0.05
2023-01-04T03:16:35.905Z,0.02
2023-01-04T03:18:18.121Z,-0.05
2023-01-04T03:19:55.165Z,-0.18
2023-01-04T03:21:28.393Z,-0.18
2023-01-04T03:23:27.455Z,-0.19
2023-01-04T03:25:19.742Z,-0.19
2023-01-04T03:27:23.401Z,-0.26
2023-01-04T03:29:18.649Z,-0.28
2023-01-04T03:31:19.120Z,-0.37
2023-01-04T03:33:22.439Z,-0.43
2023-01-04T03:35:13.590Z,-0.41
2023-01-04T03:37:21.802Z,-0.39
2023-01-04T03:39:39.946Z,-0.37
2023-01-04T03:41:35.217Z,-0.28
2023-01-04T03:43:28.501Z,-0.27
2023-01-04T03:45:37.653Z,-0.15
2023-01-04T03:47:36.275Z,-0.17
2023-01-04T03:49:13.820Z,-0.02
2023-01-04T03:50:52.018Z,-0.02
2023-01-04T03:52:27.079Z,0.03
2023-01-04T03:54:17.634Z,0.03
2023-01-04T03:55:51.242Z,0.07
2023-01-04T03:57:23.645Z,0.00
2023-01-04T03:58:55.279Z,0.05
2023-01-04T04:00:27.864Z,0.01
2023-01-04T04:01:59.503Z,0.09
2023-01-04T04:03:50.530Z,0.06
2023-01-04T04:05:43.271Z,-0.09
2023-01-04T04:07:33.198Z,-0.15
2023-01-04T04:09:04.883Z,-0.13
2023-01-04T04:10:36.511Z,-0.21
2023-01-04T04:12:08.166Z,-0.32
2023-01-04T04:13:39.719Z,-0.35
2023-01-04T04:15:11.404Z,-0.33
2023-01-04T04:16:43.060Z,-0.26
2023-01-04T04:18:14.700Z,-0.35
2023-01-04T04:19:46.308Z,-0.38
2023-01-04T04:21:17.899Z,-0.31
2023-01-04T04:22:49.517Z,-0.27
2023-01-04T04:24:26.988Z,-0.29
2023-01-04T04:25:58.671Z,-0.42
2023-01-04T04:27:30.290Z,-0.47
2023-01-04T04:29:01.885Z,-0.52
2023-01-04T04:30:33.504Z,-0.66
2023-01-04T04:32:05.347Z,-0.66
2023-01-04T04:33:37.038Z,-0.52
2023-01-04T04:35:09.179Z,-0.52
2023-01-04T04:36:40.844Z,-0.51
2023-01-04T04:38:12.403Z,-0.39
2023-01-04T04:39:43.973Z,-0.42
2023-01-04T04:41:34.392Z,-0.49
2023-01-04T04:43:08.010Z,-0.40
2023-01-04T04:44:39.694Z,-0.33
2023-01-04T04:46:11.387Z,-0.25
2023-01-04T04:47:43.009Z,-0.15
2023-01-04T04:49:15.007Z,-0.13
2023-01-04T04:50:46.535Z,-0.08
2023-01-04T04:52:18.171Z,-0.06
2023-01-04T04:53:49.755Z,-0.02
2023-01-04T04:55:21.308Z,0.02
2023-01-04T04:56:52.934Z,0.07
2023-01-04T04:58:24.661Z,0.06
2023-01-04T04:59:56.239Z,0.08
2023-01-04T05:01:27.888Z,0.14
2023-01-04T05:03:00.487Z,0.15
2023-01-04T05:04:32.175Z,0.11
2023-01-04T05:06:04.336Z,0.20
2023-01-04T05:07:36.010Z,0.15
2023-01-04T05:09:07.780Z,0.13
2023-01-04T05:10:39.410Z,0.07
2023-01-04T05:12:31.190Z,0.07
2023-01-04T05:14:02.800Z,0.08
2023-01-04T05:15:39.692Z,0.11
2023-01-04T05:17:11.345Z,0.12
2023-01-04T05:18:42.998Z,0.11
2023-01-04T05:20:14.601Z,0.13
2023-01-04T05:21:46.154Z,0.17
2023-01-04T05:23:19.785Z,0.13
2023-01-04T05:24:51.387Z,0.17
2023-01-04T05:26:23.046Z,0.24
2023-01-04T05:27:55.196Z,0.25
2023-01-04T05:29:45.203Z,0.32
2023-01-04T05:31:16.823Z,0.37
2023-01-04T05:32:48.457Z,0.39
2023-01-04T05:34:22.276Z,0.39
2023-01-04T05:35:56.305Z,0.46
2023-01-04T05:37:27.931Z,0.42
2023-01-04T05:38:59.527Z,0.36
2023-01-04T05:40:31.464Z,0.41
2023-01-04T05:42:21.975Z,0.44
2023-01-04T05:43:53.535Z,0.52
2023-01-04T05:45:27.230Z,0.50
2023-01-04T05:46:58.821Z,0.46
2023-01-04T05:48:30.451Z,0.50
2023-01-04T05:50:02.697Z,0.57
2023-01-04T05:51:34.530Z,0.58
2023-01-04T05:53:06.668Z,0.55
2023-01-04T05:54:38.367Z,0.62
2023-01-04T05:56:09.899Z,0.61
2023-01-04T05:57:42.272Z,0.63
2023-01-04T05:59:15.074Z,0.69
2023-01-04T06:00:46.738Z,0.71
2023-01-04T06:02:29.505Z,0.65
2023-01-04T06:04:01.221Z,0.62
2023-01-04T06:05:32.912Z,0.62
2023-01-04T06:07:04.510Z,0.63
2023-01-04T06:08:36.133Z,0.70
2023-01-04T06:10:10.318Z,0.72
2023-01-04T06:11:41.992Z,0.82
2023-01-04T06:13:13.622Z,0.83
2023-01-04T06:14:45.303Z,0.75
2023-01-04T06:16:16.889Z,0.73
2023-01-04T06:17:48.541Z,0.75
2023-01-04T06:19:20.178Z,0.88
2023-01-04T06:20:52.307Z,1.01
2023-01-04T06:22:27.047Z,0.93
2023-01-04T06:23:58.789Z,0.95
2023-01-04T06:25:30.377Z,0.99
2023-01-04T06:27:03.376Z,0.96
2023-01-04T06:28:40.527Z,0.93
2023-01-04T06:30:12.693Z,0.83
2023-01-04T06:31:44.695Z,0.92
2023-01-04T06:33:16.249Z,0.92
2023-01-04T06:34:48.012Z,0.93
2023-01-04T06:36:20.389Z,0.84
2023-01-04T06:37:52.152Z,0.82
2023-01-04T06:39:23.893Z,0.81
2023-01-04T06:40:55.552Z,0.94
2023-01-04T06:42:45.232Z,1.03
2023-01-04T06:44:17.017Z,1.08
2023-01-04T06:45:48.736Z,1.13
2023-01-04T06:47:20.279Z,1.21
2023-01-04T06:48:53.754Z,1.31
2023-01-04T06:50:25.326Z,1.28
2023-01-04T06:51:56.934Z,1.23
2023-01-04T06:53:28.625Z,1.20
2023-01-04T06:55:00.265Z,1.15
2023-01-04T06:56:32.337Z,1.15
2023-01-04T06:58:03.948Z,1.14
2023-01-04T06:59:35.543Z,1.17
2023-01-04T07:01:07.901Z,1.26
2023-01-04T07:02:39.917Z,1.25
2023-01-04T07:04:31.302Z,1.25
2023-01-04T07:06:07.698Z,1.29
2023-01-04T07:07:39.328Z,1.30
2023-01-04T07:09:10.928Z,1.35
2023-01-04T07:10:42.856Z,1.41
2023-01-04T07:12:14.546Z,1.44
2023-01-04T07:13:46.245Z,1.46
2023-01-04T07:15:37.995Z,1.47
2023-01-04T07:17:09.599Z,1.51
2023-01-04T07:18:41.256Z,1.54
2023-01-04T07:20:12.882Z,1.54
2023-01-04T07:21:44.540Z,1.58
2023-01-04T07:23:16.190Z,1.61
2023-01-04T07:24:47.730Z,1.63
2023-01-04T07:26:19.271Z,1.66
2023-01-04T07:27:54.385Z,1.68
2023-01-04T07:29:26.296Z,1.72
2023-01-04T07:30:57.978Z,1.75
2023-01-04T07:32:29.660Z,1.81
2023-01-04T07:34:01.278Z,1.87
2023-01-04T07:35:32.925Z,1.93
2023-01-04T07:37:04.724Z,2.08
2023-01-04T07:38:36.676Z,2.11
2023-01-04T07:40:08.855Z,2.13
2023-01-04T07:41:41.500Z,2.16
2023-01-04T07:43:13.825Z,2.23
2023-01-04T07:44:45.839Z,2.28
2023-01-04T07:46:17.600Z,2.30
2023-01-04T07:47:49.316Z,2.33
2023-01-04T07:49:21.149Z,2.41
2023-01-04T07:50:52.735Z,2.46
2023-01-04T07:52:24.374Z,2.50
2023-01-04T07:53:56.050Z,2.52
2023-01-04T07:55:27.703Z,2.56
2023-01-04T07:56:59.247Z,2.59
2023-01-04T07:58:34.319Z,2.65
2023-01-04T08:00:06.577Z,2.68
2023-01-04T08:01:43.884Z,2.72
2023-01-04T08:03:15.589Z,2.80
2023-01-04T08:04:47.264Z,2.90
2023-01-04T08:06:20.522Z,3.04
2023-01-04T08:07:52.646Z,3.11
2023-01-04T08:09:24.208Z,3.11
2023-01-04T08:10:55.766Z,3.16
2023-01-04T08:12:27.822Z,3.18
2023-01-04T08:13:59.487Z,3.26
2023-01-04T08:15:31.170Z,3.37
2023-01-04T08:17:02.868Z,3.38
2023-01-04T08:18:34.788Z,3.43
2023-01-04T08:20:07.475Z,3.53
2023-01-04T08:21:39.109Z,3.52
2023-01-04T08:23:10.704Z,3.57
2023-01-04T08:24:42.355Z,3.57
2023-01-04T08:26:15.268Z,3.74
2023-01-04T08:27:46.900Z,3.75
2023-01-04T08:29:18.546Z,3.66
2023-01-04T08:30:50.188Z,3.67
2023-01-04T08:32:21.926Z,3.69
2023-01-04T08:33:54.118Z,3.72
2023-01-04T08:35:25.741Z,3.81
2023-01-04T08:36:57.361Z,3.87
2023-01-04T08:38:58.632Z,3.98
2023-01-04T08:40:20.550Z,4.05
2023-01-04T08:42:10.831Z,4.09
2023-01-04T08:43:44.782Z,4.21
2023-01-04T08:45:16.393Z,4.22
2023-01-04T08:46:49.033Z,4.36
2023-01-04T08:48:24.543Z,4.41
2023-01-04T08:49:56.997Z,4.32
2023-01-04T08:51:28.629Z,4.33
2023-01-04T08:53:00.270Z,4.38
2023-01-04T08:54:32.881Z,4.51
2023-01-04T08:56:04.950Z,4.49
2023-01-04T08:57:36.620Z,4.40
2023-01-04T08:59:10.976Z,4.40
2023-01-04T09:00:42.609Z,4.39
2023-01-04T09:02:26.592Z,4.44
2023-01-04T09:03:58.696Z,4.43
2023-01-04T09:05:32.279Z,4.43
2023-01-04T09:07:03.856Z,4.48
2023-01-04T09:08:36.979Z,4.65
2023-01-04T09:10:09.037Z,4.78
2023-01-04T09:11:40.673Z,4.91
2023-01-04T09:13:12.382Z,5.16
2023-01-04T09:14:44.107Z,5.47
2023-01-04T09:16:18.916Z,5.47
2023-01-04T09:18:29.305Z,5.56
2023-01-04T09:19:42.467Z,5.69
2023-01-04T09:21:17.281Z,5.73
2023-01-04T09:22:48.870Z,5.70
2023-01-04T09:24:20.508Z,5.66
2023-01-04T09:25:52.467Z,5.62
2023-01-04T09:27:24.079Z,5.66
2023-01-04T09:28:56.509Z,5.73
2023-01-04T09:30:28.217Z,5.80
2023-01-04T09:31:59.881Z,5.82
2023-01-04T09:33:55.732Z,5.80
2023-01-04T09:35:23.182Z,6.01
2023-01-04T09:36:54.866Z,6.10
2023-01-04T09:38:26.474Z,6.23
2023-01-04T09:39:58.017Z,6.20
2023-01-04T09:42:00.261Z,6.23
2023-01-04T09:43:40.574Z,6.15
2023-01-04T09:45:24.863Z,6.32
2023-01-04T09:47:08.435Z,6.48
2023-01-04T09:48:42.935Z,6.43
2023-01-04T09:50:34.803Z,6.49
2023-01-04T09:52:09.364Z,6.49
2023-01-04T09:53:50.593Z,6.63
2023-01-04T09:55:38.024Z,6.61
2023-01-04T09:57:42.985Z,6.57
2023-01-04T09:59:17.592Z,6.73
2023-01-04T10:01:15.292Z,6.65
2023-01-04T10:02:53.030Z,6.63
2023-01-04T10:04:44.380Z,6.57
2023-01-04T10:06:16.086Z,6.74
2023-01-04T10:07:47.814Z,6.70
2023-01-04T10:09:20.308Z,6.61
2023-01-04T10:11:29.385Z,6.65
2023-01-04T10:13:24.149Z,6.63
2023-01-04T10:15:12.638Z,6.69
2023-01-04T10:17:14.743Z,6.68
2023-01-04T10:20:08.007Z,6.76
2023-01-04T10:23:02.764Z,7.01
2023-01-04T10:24:56.259Z,7.02
2023-01-04T10:26:36.667Z,7.18
2023-01-04T10:28:55.293Z,7.04
2023-01-04T10:30:56.211Z,7.14
2023-01-04T10:32:43.426Z,7.00
2023-01-04T10:34:29.634Z,7.20
2023-01-04T10:36:01.513Z,7.17
2023-01-04T10:37:37.587Z,7.13
2023-01-04T10:39:19.808Z,7.13
2023-01-04T10:40:52.213Z,7.09
2023-01-04T10:42:34.333Z,7.05
2023-01-04T10:44:24.786Z,7.17
2023-01-04T10:46:12.245Z,7.21
2023-01-04T10:48:02.609Z,7.16
2023-01-04T10:49:40.174Z,7.08
2023-01-04T10:51:15.531Z,7.16
2023-01-04T10:52:56.139Z,7.17
2023-01-04T10:54:35.432Z,7.22
2023-01-04T10:56:27.493Z,7.33
2023-01-04T10:58:06.812Z,7.31
2023-01-04T10:59:47.364Z,7.45
2023-01-04T11:01:42.313Z,7.44
2023-01-04T11:03:20.215Z,7.41
2023-01-04T11:05:32.296Z,7.45
2023-01-04T11:07:20.488Z,7.51
2023-01-04T11:09:16.283Z,7.57
2023-01-04T11:11:03.775Z,7.92
2023-01-04T11:12:35.403Z,7.93
2023-01-04T11:14:07.148Z,7.86
2023-01-04T11:15:38.865Z,7.81
2023-01-04T11:17:11.914Z,7.88
2023-01-04T11:18:45.544Z,8.00
2023-01-04T11:20:17.803Z,7.96
2023-01-04T11:22:02.073Z,7.92
2023-01-04T11:23:33.809Z,7.90
2023-01-04T11:27:13.329Z,8.16
2023-01-04T11:29:00.508Z,8.09
2023-01-04T11:31:10.669Z,8.05
2023-01-04T11:33:00.684Z,7.98
2023-01-04T11:34:53.609Z,7.92
2023-01-04T11:36:40.205Z,7.90
2023-01-04T11:38:13.767Z,7.99
2023-01-04T11:39:45.405Z,8.13
2023-01-04T11:41:19.425Z,8.08
2023-01-04T11:43:15.745Z,8.12
2023-01-04T11:45:16.308Z,8.32
2023-01-04T11:47:05.165Z,8.16
2023-01-04T11:48:43.705Z,8.14
2023-01-04T11:50:42.971Z,8.07
2023-01-04T11:52:34.777Z,7.99
2023-01-04T11:54:19.368Z,8.17
2023-01-04T11:55:51.958Z,8.22
2023-01-04T11:57:23.564Z,8.32
2023-01-04T11:59:14.669Z,8.45
2023-01-04T12:00:51.555Z,8.42
2023-01-04T12:02:59.513Z,8.51
2023-01-04T12:04:26.111Z,8.51
2023-01-04T12:05:58.787Z,8.38
2023-01-04T12:07:35.468Z,8.39
2023-01-04T12:09:15.622Z,8.37
2023-01-04T12:10:50.419Z,8.31
2023-01-04T12:12:27.331Z,8.24
2023-01-04T12:13:59.985Z,8.36
2023-01-04T12:15:56.462Z,8.43
2023-01-04T12:17:43.533Z,8.55
2023-01-04T12:19:17.674Z,8.49
2023-01-04T12:20:49.345Z,8.65
2023-01-04T12:22:35.905Z,8.61
2023-01-04T12:24:07.739Z,8.63
2023-01-04T12:25:51.342Z,8.71
2023-01-04T12:27:23.603Z,8.78
2023-01-04T12:29:22.977Z,9.06
2023-01-04T12:30:54.674Z,8.98
2023-01-04T12:32:26.188Z,9.05
2023-01-04T12:34:16.764Z,9.08
2023-01-04T12:36:15.798Z,9.05
2023-01-04T12:37:49.524Z,9.01
2023-01-04T12:39:22.615Z,8.88
2023-01-04T12:40:55.316Z,8.84
2023-01-04T12:42:27.251Z,8.86
2023-01-04T12:43:58.904Z,8.77
2023-01-04T12:45:30.545Z,8.74
2023-01-04T12:47:41.929Z,8.90
2023-01-04T12:49:28.886Z,8.87
2023-01-04T12:51:33.315Z,8.86
2023-01-04T12:53:28.834Z,8.89
2023-01-04T12:55:18.195Z,8.83
2023-01-04T12:57:37.201Z,8.98
2023-01-04T12:59:29.463Z,8.88
2023-01-04T13:01:01.152Z,8.82
2023-01-04T13:02:34.107Z,8.86
2023-01-04T13:04:29.845Z,9.07
2023-01-04T13:06:04.662Z,8.94
2023-01-04T13:08:03.812Z,8.86
2023-01-04T13:09:48.270Z,8.80
2023-01-04T13:11:52.971Z,8.93
2023-01-04T13:13:34.052Z,9.20
2023-01-04T13:15:19.705Z,9.10
2023-01-04T13:17:00.684Z,9.00
2023-01-04T13:18:40.994Z,8.99
2023-01-04T13:20:25.799Z,8.95
2023-01-04T13:21:59.439Z,8.99
2023-01-04T13:23:31.380Z,9.03
2023-01-04T13:25:06.097Z,9.02
2023-01-04T13:26:43.131Z,8.99
2023-01-04T13:28:18.645Z,8.91
2023-01-04T13:29:51.936Z,8.91
2023-01-04T13:31:23.678Z,9.04
2023-01-04T13:33:24.798Z,9.26
2023-01-04T13:34:55.589Z,9.33
2023-01-04T13:36:27.295Z,9.42
2023-01-04T13:38:00.636Z,9.30
2023-01-04T13:39:32.770Z,9.26
2023-01-04T13:41:18.351Z,9.23
2023-01-04T13:42:58.508Z,9.38
2023-01-04T13:45:21.485Z,9.44
2023-01-04T13:46:56.155Z,9.56
2023-01-04T13:48:32.538Z,9.61
2023-01-04T13:50:07.012Z,9.44
2023-01-04T13:51:38.698Z,9.56
2023-01-04T13:53:24.074Z,9.50
2023-01-04T13:55:21.178Z,9.53
2023-01-04T13:58:46.239Z,9.45
2023-01-04T14:00:18.332Z,9.64
2023-01-04T14:01:50.791Z,9.77
2023-01-04T14:03:45.126Z,9.78
2023-01-04T14:05:18.641Z,9.76
2023-01-04T14:06:51.815Z,9.86
2023-01-04T14:09:16.169Z,10.01
2023-01-04T14:10:48.140Z,9.93
2023-01-04T14:12:24.903Z,9.79
2023-01-04T14:13:56.608Z,9.85
2023-01-04T14:15:29.415Z,9.90
2023-01-04T14:17:10.210Z,9.92
2023-01-04T14:18:41.869Z,9.83
2023-01-04T14:20:14.214Z,9.85
2023-01-04T14:21:45.828Z,9.98
2023-01-04T14:23:35.467Z,10.02
2023-01-04T14:25:41.941Z,9.96
2023-01-04T14:27:34.099Z,10.09
2023-01-04T14:29:32.460Z,10.11
2023-01-04T14:31:05.126Z,10.12
2023-01-04T14:32:36.761Z,10.12
2023-01-04T14:34:14.475Z,10.13
2023-01-04T14:35:48.982Z,10.08
2023-01-04T14:37:21.776Z,9.97
2023-01-04T14:39:06.446Z,10.08
2023-01-04T14:40:39.037Z,10.07
2023-01-04T14:42:27.826Z,10.12
2023-01-04T14:43:59.404Z,10.07
2023-01-04T14:45:31.273Z,9.97
2023-01-04T14:47:07.352Z,10.06
2023-01-04T14:48:39.249Z,10.06
2023-01-04T14:50:13.157Z,10.03
2023-01-04T14:52:03.076Z,10.04
2023-01-04T14:53:35.100Z,9.97
2023-01-04T14:55:07.259Z,9.96
2023-01-04T14:56:39.882Z,10.03
2023-01-04T14:58:11.548Z,10.09
2023-01-04T14:59:44.923Z,10.02
2023-01-04T15:01:16.650Z,10.04
2023-01-04T15:02:51.022Z,10.01
2023-01-04T15:04:23.522Z,10.06
2023-01-04T15:05:55.252Z,9.87
2023-01-04T15:07:35.805Z,9.92
2023-01-04T15:09:09.979Z,9.95
2023-01-04T15:10:41.539Z,9.89
2023-01-04T15:12:13.143Z,9.95
2023-01-04T15:13:45.124Z,9.87
2023-01-04T15:15:16.837Z,9.78
2023-01-04T15:16:48.985Z,9.87
2023-01-04T15:18:20.576Z,9.79
2023-01-04T15:19:52.163Z,9.80
2023-01-04T15:21:23.834Z,9.86
2023-01-04T15:22:55.513Z,9.75
2023-01-04T15:24:27.170Z,9.83
2023-01-04T15:26:01.724Z,9.85
2023-01-04T15:27:39.987Z,9.84
2023-01-04T15:29:13.813Z,9.77
2023-01-04T15:30:45.658Z,9.77
2023-01-04T15:32:17.539Z,9.82
2023-01-04T15:33:49.430Z,9.78
2023-01-04T15:35:21.013Z,9.64
2023-01-04T15:36:52.788Z,9.63
2023-01-04T15:38:24.431Z,9.71
2023-01-04T15:40:01.889Z,9.78
2023-01-04T15:41:52.695Z,9.70
2023-01-04T15:43:26.457Z,9.70
2023-01-04T15:44:59.535Z,9.76
2023-01-04T15:46:31.530Z,9.70
2023-01-04T15:48:08.163Z,9.59
2023-01-04T15:49:39.968Z,9.77
2023-01-04T15:51:11.633Z,9.75
2023-01-04T15:52:43.263Z,9.71
2023-01-04T15:54:14.974Z,9.62
2023-01-04T15:55:46.628Z,9.62
2023-01-04T15:57:18.369Z,9.59
2023-01-04T15:58:55.249Z,9.56
2023-01-04T16:00:27.477Z,9.51
2023-01-04T16:01:59.222Z,9.45
2023-01-04T16:03:30.903Z,9.52
2023-01-04T16:05:02.576Z,9.57
2023-01-04T16:06:34.332Z,9.65
2023-01-04T16:08:05.956Z,9.55
2023-01-04T16:09:37.985Z,9.59
2023-01-04T16:11:21.275Z,9.66
2023-01-04T16:12:56.683Z,9.74
2023-01-04T16:14:29.216Z,9.77
2023-01-04T16:16:01.468Z,9.72
2023-01-04T16:17:33.337Z,9.61
2023-01-04T16:19:05.943Z,9.68
2023-01-04T16:20:41.239Z,9.64
2023-01-04T16:22:12.901Z,9.59
2023-01-04T16:23:49.966Z,9.53
2023-01-04T16:25:21.667Z,9.60
2023-01-04T16:26:53.387Z,9.80
2023-01-04T16:28:24.940Z,9.75
2023-01-04T16:29:56.604Z,9.71
2023-01-04T16:31:33.277Z,9.64
2023-01-04T16:33:05.242Z,9.59
2023-01-04T16:34:36.953Z,9.61
2023-01-04T16:36:11.371Z,9.67
2023-01-04T16:37:43.302Z,9.67
2023-01-04T16:39:15.779Z,9.49
2023-01-04T16:40:56.957Z,9.40
2023-01-04T16:42:28.634Z,9.51
2023-01-04T16:44:01.224Z,9.55
2023-01-04T16:45:33.258Z,9.50
2023-01-04T16:47:05.038Z,9.43
2023-01-04T16:48:36.823Z,9.46
2023-01-04T16:50:10.207Z,9.31
2023-01-04T16:51:43.930Z,9.41
2023-01-04T16:53:15.533Z,9.36
2023-01-04T16:54:47.131Z,9.34
2023-01-04T16:56:20.276Z,9.40
2023-01-04T16:57:51.874Z,9.47
2023-01-04T16:59:23.560Z,9.37
2023-01-04T17:00:55.307Z,9.47
2023-01-04T17:02:27.047Z,9.45
2023-01-04T17:04:03.042Z,9.54
2023-01-04T17:05:39.556Z,9.44
2023-01-04T17:07:11.431Z,9.26
2023-01-04T17:08:44.437Z,9.33
2023-01-04T17:10:16.346Z,9.38
2023-01-04T17:13:49.312Z,9.53
2023-01-04T17:15:42.495Z,9.43
2023-01-04T17:17:12.812Z,9.57
2023-01-04T17:18:44.531Z,9.58
2023-01-04T17:20:16.485Z,9.56
2023-01-04T17:21:48.748Z,9.50
2023-01-04T17:23:20.697Z,9.63
2023-01-04T17:24:52.330Z,9.57
2023-01-04T17:26:33.374Z,9.48
2023-01-04T17:28:05.037Z,9.43
2023-01-04T17:29:36.707Z,9.56
2023-01-04T17:31:13.430Z,9.55
2023-01-04T17:32:45.126Z,9.79
2023-01-04T17:34:22.590Z,9.88
2023-01-04T17:35:54.720Z,9.68
2023-01-04T17:37:27.121Z,9.55
2023-01-04T17:39:03.262Z,9.58
2023-01-04T17:40:35.984Z,9.45
2023-01-04T17:42:07.763Z,9.49
2023-01-04T17:43:40.825Z,9.63
2023-01-04T17:45:12.561Z,9.55
2023-01-04T17:46:44.261Z,9.66
2023-01-04T17:48:17.359Z,9.73
2023-01-04T17:49:49.035Z,9.66
2023-01-04T17:51:23.180Z,9.86
2023-01-04T17:52:58.316Z,9.76
2023-01-04T17:54:30.053Z,9.67
2023-01-04T17:56:20.977Z,9.64
2023-01-04T17:57:52.606Z,9.58
2023-01-04T17:59:24.315Z,9.55
2023-01-04T18:00:56.248Z,9.54
2023-01-04T18:02:28.288Z,9.53
2023-01-04T18:04:01.857Z,9.66
2023-01-04T18:05:44.973Z,9.58
2023-01-04T18:07:25.461Z,9.52
2023-01-04T18:08:58.330Z,9.57
2023-01-04T18:10:41.300Z,9.70
2023-01-04T18:12:21.999Z,9.67
2023-01-04T18:13:53.955Z,9.50
2023-01-04T18:15:25.667Z,9.36
2023-01-04T18:16:58.160Z,9.29
2023-01-04T18:18:30.761Z,9.26
2023-01-04T18:20:02.610Z,9.19
2023-01-04T18:21:34.491Z,9.22
2023-01-04T18:23:06.406Z,9.26
2023-01-04T18:24:39.152Z,9.17
2023-01-04T18:26:12.670Z,9.08
2023-01-04T18:27:44.274Z,9.24
2023-01-04T18:29:15.948Z,9.21
2023-01-04T18:30:48.414Z,9.40
2023-01-04T18:32:21.009Z,9.35
2023-01-04T18:33:55.109Z,9.20
2023-01-04T18:35:27.051Z,9.26
2023-01-04T18:36:58.783Z,9.23
2023-01-04T18:38:30.554Z,9.18
2023-01-04T18:40:03.654Z,9.26
2023-01-04T18:41:35.443Z,9.17
2023-01-04T18:43:07.109Z,9.21
2023-01-04T18:44:45.579Z,9.43
2023-01-04T18:46:21.657Z,9.34
2023-01-04T18:47:53.369Z,9.25
2023-01-04T18:49:25.085Z,9.21
2023-01-04T18:51:02.385Z,9.23
2023-01-04T18:52:35.553Z,9.29
2023-01-04T18:54:07.213Z,9.23
2023-01-04T18:55:39.341Z,9.16
2023-01-04T18:57:11.353Z,9.11
2023-01-04T18:58:43.133Z,9.28
2023-01-04T19:00:15.022Z,9.43
2023-01-04T19:01:46.768Z,9.35
2023-01-04T19:03:18.809Z,9.27
2023-01-04T19:04:50.652Z,9.16
2023-01-04T19:06:23.448Z,9.17
2023-01-04T19:07:55.292Z,9.28
2023-01-04T19:09:27.278Z,9.22
2023-01-04T19:10:59.026Z,9.26
2023-01-04T19:12:30.731Z,9.21
2023-01-04T19:14:03.584Z,9.21
2023-01-04T19:15:36.196Z,9.34
2023-01-04T19:17:08.826Z,9.38
2023-01-04T19:18:41.114Z,9.35
2023-01-04T19:20:12.889Z,9.39
2023-01-04T19:21:46.047Z,9.56
2023-01-04T19:23:17.835Z,9.61
2023-01-04T19:24:49.500Z,9.63
2023-01-04T19:26:21.803Z,9.67
2023-01-04T19:27:53.441Z,9.73
2023-01-04T19:29:25.101Z,9.72
2023-01-04T19:30:56.936Z,9.73
2023-01-04T19:32:33.215Z,9.76
2023-01-04T19:34:05.420Z,9.69
2023-01-04T19:35:45.416Z,9.76
2023-01-04T19:37:17.178Z,9.83
2023-01-04T19:38:48.840Z,9.76
2023-01-04T19:40:20.439Z,9.90
2023-01-04T19:41:52.092Z,9.83
2023-01-04T19:43:23.834Z,9.85
2023-01-04T19:44:55.480Z,9.87
2023-01-04T19:46:27.227Z,9.90
2023-01-04T19:47:58.827Z,9.81
2023-01-04T19:49:30.472Z,9.86
2023-01-04T19:51:09.622Z,9.79
2023-01-04T19:52:41.249Z,9.64
2023-01-04T19:54:13.796Z,9.65
2023-01-04T19:55:45.407Z,9.71
2023-01-04T19:57:17.019Z,9.74
2023-01-04T19:58:48.608Z,9.69
2023-01-04T20:00:20.307Z,9.68
2023-01-04T20:01:53.061Z,9.64
2023-01-04T20:03:28.939Z,9.65
2023-01-04T20:05:00.914Z,9.55
2023-01-04T20:06:33.267Z,9.70
2023-01-04T20:08:05.204Z,9.58
2023-01-04T20:09:37.310Z,9.72
2023-01-04T20:11:12.835Z,9.71
2023-01-04T20:12:44.475Z,9.70
2023-01-04T20:14:16.167Z,9.68
2023-01-04T20:15:47.888Z,9.66
2023-01-04T20:17:19.559Z,9.71
2023-01-04T20:18:54.585Z,9.67
2023-01-04T20:20:26.207Z,9.54
2023-01-04T20:21:58.041Z,9.61
2023-01-04T20:23:29.759Z,9.71
2023-01-04T20:25:01.463Z,9.79
2023-01-04T20:26:33.115Z,9.72
2023-01-04T20:28:04.780Z,9.58
2023-01-04T20:29:37.308Z,9.54
2023-01-04T20:31:12.088Z,9.61
2023-01-04T20:32:44.165Z,9.69
2023-01-04T20:34:15.862Z,9.69
2023-01-04T20:35:47.499Z,9.71
2023-01-04T20:37:19.148Z,9.47
2023-01-04T20:38:50.846Z,9.58
2023-01-04T20:40:26.956Z,9.57
2023-01-04T20:42:17.140Z,9.51
2023-01-04T20:43:49.600Z,9.43
2023-01-04T20:45:21.382Z,9.51
2023-01-04T20:46:53.046Z,9.40
2023-01-04T20:48:25.066Z,9.35
2023-01-04T20:49:56.878Z,9.45
2023-01-04T20:51:30.339Z,9.53
2023-01-04T20:53:02.417Z,9.54
2023-01-04T20:54:34.125Z,9.48
2023-01-04T20:56:14.187Z,9.37
2023-01-04T20:57:45.802Z,9.41
2023-01-04T20:59:17.801Z,9.34
2023-01-04T21:00:49.615Z,9.39
2023-01-04T21:02:21.448Z,9.35
2023-01-04T21:03:53.435Z,9.37
2023-01-04T21:05:25.114Z,9.43
2023-01-04T21:06:56.745Z,9.32
2023-01-04T21:08:29.165Z,9.40
2023-01-04T21:10:00.738Z,9.36
2023-01-04T21:11:32.596Z,9.31
2023-01-04T21:13:04.181Z,9.42
2023-01-04T21:14:38.163Z,9.40
2023-01-04T21:16:10.731Z,9.37
2023-01-04T21:17:42.451Z,9.34
2023-01-04T21:19:14.193Z,9.33
2023-01-04T21:20:46.481Z,9.49
2023-01-04T21:22:18.223Z,9.44
2023-01-04T21:23:56.148Z,9.30
2023-01-04T21:25:29.498Z,9.25
2023-01-04T21:27:01.571Z,9.37
2023-01-04T21:28:33.550Z,9.34
2023-01-04T21:30:05.870Z,9.43
2023-01-04T21:31:37.662Z,9.43